Date,TemperatureHighF,TemperatureAvgF,TemperatureLowF,DewpointHighF,DewpointAvgF,DewpointLowF,HumidityHigh,HumidityAvg,HumidityLow,PressureMaxIn,PressureMinIn,WindSpeedMaxMPH,WindSpeedAvgMPH,GustSpeedMaxMPH,PrecipitationSumIn
2013-9-1,86,75,66,74,65,53,99,74,36,29.93,29.72,23,6,34,0.00
2013-9-2,84,70,58,62,56,41,99,66,24,30.03,29.92,12,3,19,0.00
2013-9-3,90,71,53,57,50,33,99,56,16,30.07,29.98,8,2,11,0.00
2013-9-4,90,76,62,62,55,42,83,52,21,30.14,30.00,8,2,13,0.00
2013-9-5,90,76,64,62,56,41,82,53,18,30.16,30.06,11,2,13,0.00
2013-9-6,92,78,67,61,58,54,77,52,29,30.08,29.92,13,4,17,0.00
2013-9-7,100,83,70,67,62,55,75,51,23,29.93,29.80,16,6,22,0.00
2013-9-8,95,82,73,73,64,55,85,57,28,29.86,29.75,8,3,11,0.00
2013-9-9,98,85,72,64,56,42,67,41,16,29.88,29.80,18,7,27,0.00
2013-9-10,97,83,69,61,57,48,71,45,20,30.00,29.88,20,8,27,0.00
2013-9-11,92,80,70,73,61,54,99,56,30,30.05,29.99,12,4,18,0.00
2013-9-12,86,74,64,74,56,33,99,61,17,30.12,30.03,12,4,18,0.00
2013-9-13,78,65,52,51,41,27,93,46,16,30.16,30.02,11,4,17,0.00
2013-9-14,80,66,52,48,41,35,62,42,21,30.06,29.88,15,5,20,0.00
2013-9-15,72,65,61,68,58,47,99,78,50,30.14,29.85,13,5,17,0.89
2013-9-16,65,60,56,58,54,48,92,81,67,30.24,30.13,13,7,17,0.02
2013-9-17,79,66,59,69,62,55,99,90,64,30.14,29.90,14,6,18,0.19
2013-9-18,89,81,66,71,65,8,99,61,40,30.05,29.79,27,11,33,1.10
2013-9-19,92,76,64,68,64,58,99,70,34,29.94,29.73,24,9,34,0.89
2013-9-20,71,62,54,64,46,36,99,58,29,30.06,29.91,15,6,24,0.00
2013-9-21,78,63,45,49,41,26,97,51,18,30.05,29.91,8,2,11,0.00
2013-9-22,79,65,52,48,45,38,83,52,25,29.99,29.87,17,6,22,0.00
2013-9-23,82,65,54,49,44,30,79,50,19,29.93,29.77,19,7,26,0.00
2013-9-24,78,68,59,60,53,47,99,59,38,29.88,29.76,8,2,11,0.00
2013-9-25,64,57,52,60,57,52,99,99,97,29.91,29.86,4,2,7,0.00
2013-9-26,85,72,61,62,56,49,99,63,29,29.91,29.83,16,8,21,0.00
2013-9-27,86,78,67,59,56,50,75,47,30,29.96,29.85,19,8,27,0.01
2013-9-28,72,64,52,68,52,42,99,66,39,30.08,29.78,19,6,28,0.17
2013-9-29,60,51,49,55,48,42,99,88,63,30.09,30.06,2,1,4,0.01
2013-9-30,80,64,50,55,46,33,99,59,19,29.95,29.80,12,5,16,0.00